Airfield :
LOGIN :

Register | Disclaimer

   EN    FR    IT 

 










Legend :    VFR   Marginal VFR   IFR   Intensive IFR   Very Intensive IFR
Visi :
Ceiling :
>= 8 km
>= 3000ft
5 to 8 km
1000 to 3000 ft
1500m to 5 km
500 to 1000 ft
800 to 1500m
200 to 500 ft
< 800m
< 200 ft
Symbols :   Thunderstorms  Fog  Heavy snow  Heavy precipitations  Wind > 20 kt
SIGMETs :     Misc.  Thunderstorms  Icing  Turbulence  Mountain Waves  Volcanic Ashes






- Airport Elevation : 308 ft
- IATA code : MHG


EDFM - Mannheim-City

CURRENT METAR :
  • 230920Z 19005KT 9999 SCT009 BKN021 04/02 Q0999

EXPIRED METARs :
  • 230850Z 15004KT 120V180 9999 FEW008 BKN021 03/02 Q0999
  • 230820Z 14004KT 110V200 9999 FEW014 BKN016 BKN061 03/02 Q1000
  • 230750Z 17004KT 130V190 9999 FEW007 BKN014 03/02 Q1000
  • 230720Z 17004KT 130V190 9999 FEW006 BKN014 03/02 Q1000
  • 230650Z 17005KT 9999 FEW006 SCT015 03/02 Q1000

TAF TAF EDFM
Valid from the 23 at 06:00 until the 23 at 15:00 UTC


230500Z 2306/2315 18006KT 9999 BKN020



MET'MAP, your aeronautical weather chart ! - Copyright ORBIFLY December 2007 - Disclaimer

ORBIFLY MET'MAP TEAM :

Programming & Development : Alexandra Zaïnal
Concept & original design : Baudouin d'Aumeries
Assistance for programming : Marc-Olivier Méhu
Technical & hardware support : Manuel Goepfert

Contact : metmap@orbifly.com




SOURCES & CREDITS :

   NOAA